createdAt,value
2019-01-06T00:00:34.533Z,3.47
2019-01-06T00:03:05.712Z,3.37
2019-01-06T00:05:37.235Z,4.23
2019-01-06T00:08:08.469Z,3.50
2019-01-06T00:10:39.883Z,3.23
2019-01-06T00:13:11.057Z,4.27
2019-01-06T00:15:42.224Z,4.90
2019-01-06T00:18:13.391Z,4.70
2019-01-06T00:20:44.575Z,4.37
2019-01-06T00:23:15.821Z,4.13
2019-01-06T00:25:46.984Z,3.40
2019-01-06T00:28:18.478Z,3.33
2019-01-06T00:30:49.629Z,3.83
2019-01-06T00:33:20.801Z,3.90
2019-01-06T00:35:52.013Z,5.10
2019-01-06T00:38:23.167Z,3.23
2019-01-06T00:40:54.705Z,4.30
2019-01-06T00:43:25.877Z,4.27
2019-01-06T00:45:57.018Z,4.43
2019-01-06T00:48:28.195Z,4.03
2019-01-06T00:50:59.388Z,3.17
2019-01-06T00:53:30.522Z,3.90
2019-01-06T00:56:01.704Z,4.03
2019-01-06T00:58:32.878Z,4.17
2019-01-06T01:01:04.033Z,4.07
2019-01-06T01:03:35.203Z,2.60
2019-01-06T01:06:06.409Z,3.17
2019-01-06T01:08:37.555Z,3.67
2019-01-06T01:11:09.070Z,2.87
2019-01-06T01:13:40.264Z,3.83
2019-01-06T01:16:11.432Z,3.40
2019-01-06T01:18:42.588Z,3.90
2019-01-06T01:21:13.796Z,2.90
2019-01-06T01:23:44.935Z,5.33
2019-01-06T01:26:16.079Z,3.90
2019-01-06T01:28:47.265Z,4.80
2019-01-06T01:31:18.432Z,3.63
2019-01-06T01:33:49.597Z,4.43
2019-01-06T01:36:20.758Z,3.30
2019-01-06T01:38:51.927Z,3.77
2019-01-06T01:41:23.085Z,3.50
2019-01-06T01:43:54.289Z,4.07
2019-01-06T01:46:25.425Z,2.87
2019-01-06T01:48:56.566Z,3.93
2019-01-06T01:51:27.727Z,4.53
2019-01-06T01:53:58.899Z,2.60
2019-01-06T01:56:30.065Z,3.70
2019-01-06T01:59:01.243Z,3.30
2019-01-06T02:01:32.423Z,3.57
2019-01-06T02:04:22.885Z,3.20
2019-01-06T02:06:54.035Z,7.13
2019-01-06T02:09:25.175Z,3.57
2019-01-06T02:11:57.341Z,3.03
2019-01-06T02:14:28.480Z,3.97
2019-01-06T02:16:59.635Z,3.00
2019-01-06T02:19:31.078Z,3.43
2019-01-06T02:22:02.218Z,3.03
2019-01-06T02:24:33.208Z,2.70
2019-01-06T02:27:05.555Z,3.23
2019-01-06T02:29:36.821Z,2.73
2019-01-06T02:32:07.957Z,2.90
2019-01-06T02:34:39.472Z,3.40
2019-01-06T02:37:10.652Z,2.80
2019-01-06T02:39:41.804Z,2.37
2019-01-06T02:42:12.998Z,2.90
2019-01-06T02:44:44.167Z,2.73
2019-01-06T02:47:34.697Z,3.70
2019-01-06T02:50:06.984Z,3.17
2019-01-06T02:52:38.120Z,3.10
2019-01-06T02:55:09.401Z,3.13
2019-01-06T02:57:40.560Z,3.30
2019-01-06T03:00:11.869Z,4.03
2019-01-06T03:02:43.043Z,3.53
2019-01-06T03:05:14.225Z,3.23
2019-01-06T03:07:45.439Z,5.13
2019-01-06T03:10:16.616Z,3.23
2019-01-06T03:12:48.127Z,3.00
2019-01-06T03:15:19.271Z,3.53
2019-01-06T03:17:50.445Z,3.00
2019-01-06T03:20:21.620Z,2.77
2019-01-06T03:22:52.800Z,2.70
2019-01-06T03:25:23.959Z,3.17
2019-01-06T03:27:55.126Z,3.57
2019-01-06T03:30:26.283Z,2.33
2019-01-06T03:32:57.498Z,3.47
2019-01-06T03:35:28.631Z,2.73
2019-01-06T03:37:59.804Z,4.03
2019-01-06T03:40:50.271Z,2.67
2019-01-06T03:43:21.412Z,4.07
2019-01-06T03:45:52.551Z,3.03
2019-01-06T03:48:23.727Z,2.33
2019-01-06T03:50:54.901Z,2.50
2019-01-06T03:53:26.074Z,2.37
2019-01-06T03:55:57.235Z,2.87
2019-01-06T03:58:28.377Z,2.63
2019-01-06T04:00:59.549Z,2.63
2019-01-06T04:03:50.013Z,2.43
2019-01-06T04:06:21.153Z,2.70
2019-01-06T04:08:52.335Z,4.07
2019-01-06T04:11:42.808Z,2.63
2019-01-06T04:14:13.949Z,2.63
2019-01-06T04:16:45.125Z,3.03
2019-01-06T04:19:16.300Z,2.03
2019-01-06T04:21:47.514Z,2.47
2019-01-06T04:24:18.688Z,3.47
2019-01-06T04:26:49.896Z,2.37
2019-01-06T04:29:21.035Z,2.17
2019-01-06T04:31:52.192Z,3.20
2019-01-06T04:34:23.841Z,2.73
2019-01-06T04:36:54.978Z,1.73
2019-01-06T04:39:26.489Z,1.70
2019-01-06T04:41:57.681Z,2.73
2019-01-06T04:44:48.133Z,1.63
2019-01-06T04:47:38.564Z,1.50
2019-01-06T04:53:15.921Z,2.27
2019-01-06T04:55:47.074Z,1.70
2019-01-06T04:58:18.253Z,3.77
2019-01-06T05:00:49.442Z,1.77
2019-01-06T05:03:20.588Z,1.57
2019-01-06T05:05:51.770Z,1.73
2019-01-06T05:08:22.982Z,2.17
2019-01-06T05:10:54.145Z,3.97
2019-01-06T05:13:25.308Z,2.10
2019-01-06T05:15:57.441Z,1.80
2019-01-06T05:18:28.617Z,2.63
2019-01-06T05:20:59.786Z,2.07
2019-01-06T05:23:31.266Z,1.67
2019-01-06T05:26:02.440Z,1.73
2019-01-06T05:28:33.621Z,1.60
2019-01-06T05:31:04.877Z,2.00
2019-01-06T05:33:36.012Z,1.33
2019-01-06T05:36:07.159Z,2.90
2019-01-06T05:38:38.340Z,2.63
2019-01-06T05:41:09.519Z,2.07
2019-01-06T05:43:40.691Z,2.17
2019-01-06T05:46:31.164Z,1.67
2019-01-06T05:49:02.410Z,1.80
2019-01-06T05:51:33.578Z,2.40
2019-01-06T05:54:04.781Z,1.73
2019-01-06T05:56:36.015Z,1.73
2019-01-06T05:59:07.110Z,1.90
2019-01-06T06:01:38.349Z,3.07
2019-01-06T06:04:09.460Z,2.13
2019-01-06T06:06:40.649Z,2.20
2019-01-06T06:09:11.823Z,2.10
2019-01-06T06:11:42.992Z,2.43
2019-01-06T06:14:14.173Z,1.50
2019-01-06T06:16:46.649Z,2.70
2019-01-06T06:19:17.812Z,1.50
2019-01-06T06:21:48.953Z,2.00
2019-01-06T06:24:20.119Z,2.47
2019-01-06T06:26:51.368Z,3.63
2019-01-06T06:29:22.509Z,2.10
2019-01-06T06:31:53.563Z,2.20
2019-01-06T06:34:24.723Z,1.70
2019-01-06T06:36:55.864Z,1.70
2019-01-06T06:39:27.110Z,2.33
2019-01-06T06:41:58.348Z,2.03
2019-01-06T06:44:29.498Z,2.00
2019-01-06T06:47:00.659Z,2.40
2019-01-06T06:49:31.799Z,4.37
2019-01-06T06:52:03.048Z,2.50
2019-01-06T06:54:34.252Z,2.27
2019-01-06T06:57:09.858Z,1.80
2019-01-06T06:59:45.477Z,3.47
2019-01-06T07:02:21.116Z,2.50
2019-01-06T07:04:52.296Z,2.53
2019-01-06T07:10:13.673Z,4.50
2019-01-06T07:12:44.837Z,2.67
2019-01-06T07:15:16.081Z,2.17
2019-01-06T07:17:50.645Z,2.57
2019-01-06T07:20:41.163Z,2.40
2019-01-06T07:23:12.365Z,3.37
2019-01-06T07:25:43.505Z,2.50
2019-01-06T07:28:33.988Z,3.00
2019-01-06T07:31:05.140Z,2.83
2019-01-06T07:33:36.325Z,2.83
2019-01-06T07:36:07.523Z,3.70
2019-01-06T07:38:38.689Z,2.90
2019-01-06T07:41:09.823Z,3.90
2019-01-06T07:43:41.029Z,2.80
2019-01-06T07:46:12.169Z,2.60
2019-01-06T07:48:43.340Z,2.87
2019-01-06T07:51:14.530Z,2.40
2019-01-06T07:54:04.948Z,2.97
2019-01-06T07:56:36.373Z,2.40
2019-01-06T07:59:07.512Z,4.07
2019-01-06T08:01:38.659Z,4.53
2019-01-06T08:04:09.807Z,3.37
2019-01-06T08:06:40.947Z,3.70
2019-01-06T08:09:12.089Z,4.13
2019-01-06T08:11:43.294Z,3.70
2019-01-06T08:14:14.445Z,3.23
2019-01-06T08:16:45.593Z,3.00
2019-01-06T08:19:16.945Z,2.67
2019-01-06T08:21:48.169Z,2.60
2019-01-06T08:24:19.419Z,2.40
2019-01-06T08:26:50.980Z,2.47
2019-01-06T08:29:22.159Z,2.83
2019-01-06T08:32:02.370Z,2.97
2019-01-06T08:34:35.033Z,2.70
2019-01-06T08:37:06.179Z,2.07
2019-01-06T08:39:37.349Z,2.07
2019-01-06T08:42:08.528Z,2.40
2019-01-06T08:44:39.665Z,2.70
2019-01-06T08:47:19.866Z,2.20
2019-01-06T08:49:54.035Z,2.70
2019-01-06T08:52:31.369Z,2.30
2019-01-06T08:55:02.526Z,2.17
2019-01-06T08:57:33.716Z,2.63
2019-01-06T09:00:05.330Z,3.17
2019-01-06T09:02:36.515Z,2.30
2019-01-06T09:05:13.636Z,2.30
2019-01-06T09:07:44.819Z,3.23
2019-01-06T09:10:15.987Z,2.30
2019-01-06T09:12:47.634Z,2.50
2019-01-06T09:15:19.048Z,2.60
2019-01-06T09:17:50.563Z,3.33
2019-01-06T09:20:22.069Z,2.37
2019-01-06T09:22:53.240Z,2.87
2019-01-06T09:25:24.402Z,2.20
2019-01-06T09:27:55.697Z,2.80
2019-01-06T09:30:26.840Z,2.23
2019-01-06T09:32:58.019Z,2.33
2019-01-06T09:35:31.117Z,3.07
2019-01-06T09:38:02.414Z,2.87
2019-01-06T09:40:33.566Z,2.70
2019-01-06T09:43:04.722Z,2.50
2019-01-06T09:45:35.867Z,2.30
2019-01-06T09:48:07.034Z,2.60
2019-01-06T09:50:38.419Z,2.83
2019-01-06T09:53:09.598Z,2.07
2019-01-06T09:55:40.738Z,3.57
2019-01-06T09:58:11.914Z,3.10
2019-01-06T10:00:43.094Z,2.80
2019-01-06T10:03:14.238Z,2.33
2019-01-06T10:05:45.412Z,3.80
2019-01-06T10:08:16.586Z,2.50
2019-01-06T10:11:07.061Z,3.83
2019-01-06T10:13:38.230Z,2.87
2019-01-06T10:16:09.397Z,3.13
2019-01-06T10:18:40.586Z,2.93
2019-01-06T10:21:11.814Z,2.33
2019-01-06T10:23:42.992Z,2.67
2019-01-06T10:26:14.540Z,3.10
2019-01-06T10:28:47.169Z,3.37
2019-01-06T10:31:18.593Z,2.50
2019-01-06T10:33:49.852Z,2.67
2019-01-06T10:36:21.019Z,4.90
2019-01-06T10:38:52.193Z,2.33
2019-01-06T10:41:24.880Z,2.30
2019-01-06T10:43:56.043Z,2.00
2019-01-06T10:46:46.505Z,2.10
2019-01-06T10:49:17.691Z,1.70
2019-01-06T10:51:48.849Z,2.67
2019-01-06T10:54:20.278Z,1.70
2019-01-06T10:56:51.441Z,1.80
2019-01-06T10:59:22.625Z,2.00
2019-01-06T11:01:53.788Z,2.30
2019-01-06T11:04:24.966Z,1.70
2019-01-06T11:06:56.139Z,2.30
2019-01-06T11:09:27.404Z,2.07
2019-01-06T11:11:58.650Z,1.60
2019-01-06T11:14:29.893Z,1.70
2019-01-06T11:17:01.076Z,1.97
2019-01-06T11:19:32.221Z,1.50
2019-01-06T11:22:03.437Z,1.90
2019-01-06T11:24:34.685Z,1.60
2019-01-06T11:27:05.861Z,1.43
2019-01-06T11:29:37.106Z,1.67
2019-01-06T11:32:27.634Z,1.47
2019-01-06T11:34:58.804Z,2.87
2019-01-06T11:37:29.956Z,1.57
2019-01-06T11:40:01.423Z,1.70
2019-01-06T11:42:32.585Z,2.10
2019-01-06T11:45:03.724Z,1.97
2019-01-06T11:47:35.297Z,3.57
2019-01-06T11:50:07.306Z,1.80
2019-01-06T11:52:38.491Z,2.50
2019-01-06T11:55:09.721Z,1.70
2019-01-06T11:57:40.857Z,2.07
2019-01-06T12:00:12.165Z,1.90
2019-01-06T12:02:43.337Z,1.97
2019-01-06T12:05:15.972Z,2.17
2019-01-06T12:07:47.151Z,1.77
2019-01-06T12:10:18.378Z,2.73
2019-01-06T12:12:49.556Z,2.10
2019-01-06T12:15:20.697Z,2.10
2019-01-06T12:17:51.955Z,1.97
2019-01-06T12:20:23.092Z,1.80
2019-01-06T12:22:54.273Z,1.60
2019-01-06T12:25:25.481Z,2.93
2019-01-06T12:27:56.703Z,1.70
2019-01-06T12:30:27.895Z,1.70
2019-01-06T12:33:18.345Z,1.93
2019-01-06T12:35:49.539Z,2.33
2019-01-06T12:38:20.712Z,1.80
2019-01-06T12:40:51.924Z,1.87
2019-01-06T12:43:42.378Z,2.13
2019-01-06T12:46:13.563Z,1.80
2019-01-06T12:48:44.726Z,2.57
2019-01-06T12:51:15.879Z,1.60
2019-01-06T12:53:47.074Z,1.90
2019-01-06T12:56:18.214Z,1.97
2019-01-06T12:58:49.356Z,2.63
2019-01-06T13:01:22.622Z,2.57
2019-01-06T13:03:57.612Z,2.47
2019-01-06T13:06:30.597Z,3.07
2019-01-06T13:09:21.035Z,2.30
2019-01-06T13:11:52.238Z,2.83
2019-01-06T13:14:23.410Z,2.07
2019-01-06T13:17:13.844Z,2.40
2019-01-06T13:19:45.020Z,2.50
2019-01-06T13:22:16.267Z,2.57
2019-01-06T13:24:48.466Z,2.40
2019-01-06T13:30:08.805Z,2.80
2019-01-06T13:32:39.972Z,2.43
2019-01-06T13:35:11.222Z,2.80
2019-01-06T13:37:42.402Z,3.07
2019-01-06T13:40:13.582Z,2.37
2019-01-06T13:42:44.769Z,2.33
2019-01-06T13:45:16.190Z,2.20
2019-01-06T13:47:47.336Z,3.30
2019-01-06T13:50:18.480Z,2.17
2019-01-06T13:52:49.677Z,2.50
2019-01-06T13:55:20.835Z,1.90
2019-01-06T13:57:52.019Z,2.03
2019-01-06T14:00:23.200Z,2.40
2019-01-06T14:02:54.365Z,2.30
2019-01-06T14:05:25.547Z,3.00
2019-01-06T14:07:56.754Z,2.10
2019-01-06T14:10:28.264Z,2.70
2019-01-06T14:12:59.432Z,1.70
2019-01-06T14:15:30.621Z,2.07
2019-01-06T14:18:01.769Z,2.43
2019-01-06T14:20:32.998Z,2.27
2019-01-06T14:23:04.185Z,2.13
2019-01-06T14:25:54.639Z,2.00
2019-01-06T14:28:26.239Z,2.37
2019-01-06T14:31:16.694Z,3.17
2019-01-06T14:33:48.262Z,2.20
2019-01-06T14:36:19.441Z,2.20
2019-01-06T14:38:50.583Z,2.33
2019-01-06T14:41:21.795Z,3.03
2019-01-06T14:43:52.932Z,2.50
2019-01-06T14:46:24.109Z,3.73
2019-01-06T14:49:14.627Z,2.63
2019-01-06T14:51:45.749Z,2.77
2019-01-06T14:54:16.925Z,2.50
2019-01-06T14:56:48.312Z,2.57
2019-01-06T14:59:19.490Z,2.33
2019-01-06T15:01:50.646Z,3.13
2019-01-06T15:04:21.838Z,2.50
2019-01-06T15:06:53.020Z,3.00
2019-01-06T15:09:24.158Z,2.87
2019-01-06T15:12:14.729Z,2.70
2019-01-06T15:14:45.874Z,2.40
2019-01-06T15:17:17.050Z,2.50
2019-01-06T15:20:08.469Z,3.13
2019-01-06T15:22:39.609Z,2.83
2019-01-06T15:25:10.754Z,2.60
2019-01-06T15:27:42.029Z,2.77
2019-01-06T15:30:13.192Z,3.30
2019-01-06T15:32:44.329Z,3.10
2019-01-06T15:35:15.616Z,3.30
2019-01-06T15:37:46.790Z,3.50
2019-01-06T15:40:17.941Z,3.70
2019-01-06T15:42:49.209Z,4.43
2019-01-06T15:45:20.388Z,3.63
2019-01-06T15:47:53.092Z,3.27
2019-01-06T15:50:24.177Z,4.43
2019-01-06T15:52:55.360Z,3.87
2019-01-06T15:55:26.526Z,4.63
2019-01-06T15:57:57.711Z,3.93
2019-01-06T16:00:28.866Z,3.83
2019-01-06T16:03:00.021Z,3.00
2019-01-06T16:05:31.576Z,2.97
2019-01-06T16:08:02.753Z,3.67
2019-01-06T16:10:53.214Z,3.47
2019-01-06T16:13:24.362Z,3.23
2019-01-06T16:18:42.894Z,3.80
2019-01-06T16:21:14.065Z,3.63
2019-01-06T16:23:45.251Z,4.40
2019-01-06T16:26:35.747Z,5.10
2019-01-06T16:29:06.884Z,5.60
2019-01-06T16:31:38.047Z,4.33
2019-01-06T16:34:09.232Z,4.77
2019-01-06T16:36:40.389Z,4.77
2019-01-06T16:39:11.566Z,3.73
2019-01-06T16:41:42.749Z,6.43
2019-01-06T16:44:13.928Z,4.20
2019-01-06T16:46:45.068Z,4.97
2019-01-06T16:49:16.262Z,4.83
2019-01-06T16:51:47.464Z,4.20
2019-01-06T16:57:05.129Z,4.43
2019-01-06T16:59:36.298Z,3.67
2019-01-06T17:02:07.481Z,3.50
2019-01-06T17:04:38.636Z,3.83
2019-01-06T17:07:09.813Z,3.23
2019-01-06T17:09:40.953Z,5.73
2019-01-06T17:12:12.181Z,4.40
2019-01-06T17:14:43.328Z,4.33
2019-01-06T17:17:14.482Z,4.17
2019-01-06T17:19:46.212Z,4.07
2019-01-06T17:22:17.356Z,4.13
2019-01-06T17:24:48.509Z,3.87
2019-01-06T17:27:19.733Z,3.73
2019-01-06T17:29:51.265Z,4.70
2019-01-06T17:32:22.425Z,4.00
2019-01-06T17:34:53.626Z,4.53
2019-01-06T17:37:24.784Z,3.83
2019-01-06T17:39:55.930Z,5.10
2019-01-06T17:42:27.151Z,6.17
2019-01-06T17:44:58.289Z,5.30
2019-01-06T17:47:48.790Z,5.73
2019-01-06T17:50:19.967Z,5.53
2019-01-06T17:52:51.132Z,5.50
2019-01-06T17:55:22.337Z,5.60
2019-01-06T17:57:54.696Z,7.27
2019-01-06T18:00:38.122Z,5.80
2019-01-06T18:03:09.289Z,5.13
2019-01-06T18:05:40.458Z,6.07
2019-01-06T18:08:11.659Z,6.30
2019-01-06T18:11:02.113Z,5.70
2019-01-06T18:13:33.317Z,6.57
2019-01-06T18:16:04.469Z,7.47
2019-01-06T18:18:35.738Z,6.70
2019-01-06T18:21:06.900Z,7.43
2019-01-06T18:23:38.044Z,8.07
2019-01-06T18:26:09.222Z,7.40
2019-01-06T18:28:40.405Z,7.50
2019-01-06T18:31:11.550Z,8.90
2019-01-06T18:33:42.731Z,7.63
2019-01-06T18:36:14.009Z,7.80
2019-01-06T18:38:45.148Z,7.23
2019-01-06T18:41:16.294Z,8.60
2019-01-06T18:43:47.493Z,8.37
2019-01-06T18:46:18.643Z,8.93
2019-01-06T18:48:49.820Z,8.83
2019-01-06T18:51:21.018Z,8.43
2019-01-06T18:53:52.209Z,7.87
2019-01-06T18:56:42.658Z,8.40
2019-01-06T18:59:13.815Z,7.93
2019-01-06T19:01:44.962Z,8.03
2019-01-06T19:04:16.150Z,9.67
2019-01-06T19:06:47.317Z,8.07
2019-01-06T19:12:05.376Z,9.67
2019-01-06T19:14:36.500Z,8.67
2019-01-06T19:17:07.694Z,8.47
2019-01-06T19:19:39.192Z,10.23
2019-01-06T19:22:23.424Z,8.43
2019-01-06T19:24:54.689Z,8.00
2019-01-06T19:27:25.926Z,7.63
2019-01-06T19:29:57.102Z,8.60
2019-01-06T19:32:28.277Z,8.10
2019-01-06T19:34:59.451Z,8.83
2019-01-06T19:37:30.590Z,8.97
2019-01-06T19:40:01.814Z,9.00
2019-01-06T19:42:32.983Z,9.50
2019-01-06T19:45:04.153Z,8.73
2019-01-06T19:47:35.381Z,8.40
2019-01-06T19:50:08.197Z,9.63
2019-01-06T19:52:39.336Z,8.40
2019-01-06T19:57:57.833Z,9.33
2019-01-06T20:00:28.982Z,8.23
2019-01-06T20:03:00.126Z,8.47
2019-01-06T20:05:31.293Z,9.50
2019-01-06T20:08:02.470Z,8.97
2019-01-06T20:10:33.612Z,8.50
2019-01-06T20:13:04.812Z,11.47
2019-01-06T20:15:35.973Z,8.93
2019-01-06T20:18:26.437Z,8.93
2019-01-06T20:20:57.613Z,7.90
2019-01-06T20:23:29.714Z,9.40
2019-01-06T20:26:00.904Z,7.93
2019-01-06T20:28:32.073Z,9.07
2019-01-06T20:31:03.251Z,9.30
2019-01-06T20:33:34.472Z,10.30
2019-01-06T20:36:24.924Z,9.30
2019-01-06T20:38:56.116Z,10.17
2019-01-06T20:41:27.257Z,8.33
2019-01-06T20:43:58.425Z,10.97
2019-01-06T20:46:29.629Z,12.50
2019-01-06T20:49:00.794Z,10.33
2019-01-06T20:51:31.958Z,9.93
2019-01-06T20:54:03.141Z,10.33
2019-01-06T20:56:34.323Z,10.87
2019-01-06T20:59:05.447Z,9.83
2019-01-06T21:01:36.633Z,9.87
2019-01-06T21:04:07.791Z,9.10
2019-01-06T21:06:39.040Z,8.27
2019-01-06T21:09:10.817Z,7.10
2019-01-06T21:11:41.961Z,7.40
2019-01-06T21:14:13.104Z,8.57
2019-01-06T21:16:44.289Z,8.63
2019-01-06T21:19:15.445Z,7.53
2019-01-06T21:21:46.623Z,9.63
2019-01-06T21:24:17.801Z,7.20
2019-01-06T21:26:48.969Z,8.50
2019-01-06T21:29:20.117Z,7.03
2019-01-06T21:31:51.340Z,8.23
2019-01-06T21:37:14.966Z,7.50
2019-01-06T21:39:46.147Z,7.93
2019-01-06T21:42:17.313Z,7.90
2019-01-06T21:44:48.485Z,9.67
2019-01-06T21:47:19.662Z,6.77
2019-01-06T21:49:50.812Z,7.60
2019-01-06T21:52:22.022Z,6.87
2019-01-06T21:54:53.176Z,8.33
2019-01-06T21:57:24.360Z,8.07
2019-01-06T21:59:55.517Z,7.43
2019-01-06T22:02:26.703Z,7.77
2019-01-06T22:04:57.862Z,5.97
2019-01-06T22:07:29.088Z,5.83
2019-01-06T22:10:00.283Z,5.87
2019-01-06T22:12:31.449Z,6.70
2019-01-06T22:15:02.629Z,7.87
2019-01-06T22:20:23.998Z,7.53
2019-01-06T22:22:55.547Z,6.60
2019-01-06T22:25:27.053Z,7.47
2019-01-06T22:27:58.247Z,6.93
2019-01-06T22:30:29.402Z,8.93
2019-01-06T22:33:00.541Z,9.63
2019-01-06T22:35:31.751Z,10.73
2019-01-06T22:38:02.913Z,10.73
2019-01-06T22:40:34.064Z,7.77
2019-01-06T22:43:05.394Z,11.23
2019-01-06T22:45:36.548Z,10.90
2019-01-06T22:48:07.705Z,10.97
2019-01-06T22:50:38.866Z,9.23
2019-01-06T22:53:10.046Z,10.13
2019-01-06T22:55:41.199Z,8.73
2019-01-06T22:58:12.403Z,8.83
2019-01-06T23:00:43.872Z,10.37
2019-01-06T23:06:01.932Z,7.97
2019-01-06T23:08:33.084Z,9.63
2019-01-06T23:11:04.275Z,10.67
2019-01-06T23:13:35.438Z,9.77
2019-01-06T23:16:06.637Z,13.43
2019-01-06T23:18:37.798Z,10.63
2019-01-06T23:21:08.969Z,10.33
2019-01-06T23:23:40.142Z,10.37
2019-01-06T23:26:11.319Z,11.03
2019-01-06T23:28:42.515Z,10.23
2019-01-06T23:31:32.972Z,10.60
2019-01-06T23:34:04.532Z,11.07
2019-01-06T23:36:35.717Z,11.90
2019-01-06T23:39:08.767Z,13.70
2019-01-06T23:41:39.965Z,11.83
2019-01-06T23:44:11.104Z,13.00
2019-01-06T23:46:42.314Z,11.37
2019-01-06T23:49:13.752Z,11.03
2019-01-06T23:51:44.912Z,11.07
2019-01-06T23:54:16.059Z,10.27
2019-01-06T23:56:47.265Z,9.67
2019-01-06T23:59:18.420Z,9.33
